Alta Hourly Wx Roundup
ALTA 6/23/2017
click here for graph
Temp / RH Sensor out @ 8,550 ft site.
        DATE  TIME Temp F Total   h2o Temp F Temp F  RH %  RH % W_Spd W_Dir W_Gust W_Spd W_Dir W_Gust   h2o  BATT
                      9664  9664  9664    8550   10500  8550 10500  8550  8550   8550 10500 10500  10500  8550 10500
                       AVG Depth [1HR]     AVG     AVG   AVG   AVG   AVG   AVG    MAX   AVG   AVG    MAX (1HR)   AVG

   6/23/2017 18:00           0.0  0.00              58          17                        7   298     15  0.00 13.01
   6/23/2017 17:00           0.0  0.00              57          16                        7   290     15  0.00 13.01
   6/23/2017 16:00           0.0  0.00              56          18                        6   292     14  0.00 13.01
   6/23/2017 15:00           0.0  0.00              54          22                        6   307     15  0.00 13.01
   6/23/2017 14:00           0.0  0.00              53          22                        8   306     15  0.00 13.01
   6/23/2017 13:00           0.0  0.00              53          21                       10   291     18  0.00 13.01
   6/23/2017 12:00           0.0  0.00              52          22                       10   288     17  0.00 13.01
   6/23/2017 11:00           0.0  0.00              51          21                        9   292     17  0.00 13.01
   6/23/2017 10:00           0.0  0.00              51          15                        7   282     11  0.00 13.01
   6/23/2017 09:00           0.0  0.00              49          16                        5   291      9  0.00 13.01
   6/23/2017 08:00           0.0  0.00              49          15                        6   285     10  0.00 13.01
   6/23/2017 07:00           0.0  0.00              47          19                        7   296     12  0.00 13.01
   6/23/2017 06:00           0.0  0.00              46          27                        7   311     11  0.00 13.01
   6/23/2017 05:00           0.0  0.00              46          32                        7   321     12  0.00 13.01
   6/23/2017 04:00           0.0  0.00              46          29                        7   312     14  0.00 13.01
   6/23/2017 03:00           0.0  0.00              47          28                       10   315     18  0.00 13.01
   6/23/2017 02:00           0.0  0.00              48          24                       10   312     22  0.00 13.01
   6/23/2017 01:00           0.0  0.00              50          23                       12   310     24  0.00 13.01
   6/22/2017 24:00           0.0  0.00              50          24                       13   308     33  0.00 13.01
   6/22/2017 23:00           0.0  0.00              50          27                       14   307     31  0.00 13.01
   6/22/2017 22:00           0.0  0.00              50          27                       11   309     23  0.00 13.01
   6/22/2017 21:00           0.0  0.00              52          21                       13   305     26  0.00 13.01
   6/22/2017 20:00           0.0  0.00              54          21                       13   299     25  0.00 13.01
   6/22/2017 19:00           0.0  0.00              55          27                       13   298     22  0.00 13.01


click here for graph